Terminal Aerodrome Forecast
Issued by NWS

Home | Current Version | Previous Version | Text Only | Print | Product List | Glossary On
Versions: 1 2 3 4 5 6 7 8 9 10 11 12 13 14 15 16 17 18 19 20 21 22 23 24
000
FTUS43 KLSX 022300
TAFSUS
TAF
KSUS 022324Z 0300/0324 30004KT P6SM FEW030 BKN200
     FM030100 VRB02KT P6SM SKC
     FM030800 00000KT 4SM BR SKC
      TEMPO 0310/0313 2SM BR OVC009
     FM031500 16006KT P6SM SCT040=

USA.gov is the U.S. government's official web portal to all federal, state and local government web resources and services.